createdAt,value
2018-04-11T00:00:27.461Z,11.44
2018-04-11T00:01:27.615Z,11.43
2018-04-11T00:03:10.879Z,11.36
2018-04-11T00:04:11.705Z,11.36
2018-04-11T00:05:11.604Z,11.33
2018-04-11T00:06:11.353Z,11.33
2018-04-11T00:07:11.137Z,11.29
2018-04-11T00:08:10.989Z,11.26
2018-04-11T00:09:11.122Z,11.25
2018-04-11T00:10:11.092Z,11.22
2018-04-11T00:11:11.210Z,11.22
2018-04-11T00:12:32.366Z,11.18
2018-04-11T00:13:33.253Z,11.17
2018-04-11T00:14:54.077Z,11.12
2018-04-11T00:15:55.051Z,11.10
2018-04-11T00:16:54.545Z,11.07
2018-04-11T00:17:54.911Z,11.05
2018-04-11T00:18:54.463Z,11.02
2018-04-11T00:19:54.564Z,11.02
2018-04-11T00:20:54.198Z,11.00
2018-04-11T00:21:55.127Z,10.97
2018-04-11T00:22:54.888Z,10.94
2018-04-11T00:23:54.406Z,10.92
2018-04-11T00:24:54.400Z,10.92
2018-04-11T00:25:55.343Z,10.89
2018-04-11T00:26:54.986Z,10.86
2018-04-11T00:27:54.664Z,10.84
2018-04-11T00:28:54.648Z,10.82
2018-04-11T00:29:54.215Z,10.76
2018-04-11T00:30:54.721Z,10.75
2018-04-11T00:31:54.694Z,10.74
2018-04-11T00:32:54.635Z,10.69
2018-04-11T00:33:54.486Z,10.67
2018-04-11T00:34:54.158Z,10.64
2018-04-11T00:35:54.976Z,10.63
2018-04-11T00:36:54.696Z,10.60
2018-04-11T00:37:54.335Z,10.60
2018-04-11T00:38:54.931Z,10.60
2018-04-11T00:39:54.610Z,10.57
2018-04-11T00:41:15.384Z,10.54
2018-04-11T00:42:16.029Z,10.51
2018-04-11T00:43:37.204Z,10.46
2018-04-11T00:44:37.915Z,10.44
2018-04-11T00:45:37.968Z,10.42
2018-04-11T00:46:59.029Z,10.42
2018-04-11T00:48:00.073Z,10.41
2018-04-11T00:49:00.064Z,10.41
2018-04-11T00:50:00.029Z,10.40
2018-04-11T00:50:59.453Z,10.38
2018-04-11T00:51:59.059Z,10.37
2018-04-11T00:52:59.993Z,10.34
2018-04-11T00:53:59.663Z,10.33
2018-04-11T00:54:59.320Z,10.33
2018-04-11T00:56:00.973Z,10.31
2018-04-11T00:56:59.580Z,10.28
2018-04-11T00:57:59.567Z,10.23
2018-04-11T00:59:00.147Z,10.23
2018-04-11T00:59:59.892Z,10.23
2018-04-11T01:01:00.244Z,10.20
2018-04-11T01:02:00.030Z,10.17
2018-04-11T01:03:00.123Z,10.17
2018-04-11T01:03:59.684Z,10.16
2018-04-11T01:04:59.412Z,10.13
2018-04-11T01:06:00.034Z,10.10
2018-04-11T01:06:59.971Z,10.09
2018-04-11T01:07:59.597Z,10.07
2018-04-11T01:08:59.181Z,10.04
2018-04-11T01:09:59.843Z,10.01
2018-04-11T01:10:59.585Z,9.99
2018-04-11T01:11:59.475Z,9.98
2018-04-11T01:13:00.387Z,9.95
2018-04-11T01:14:00.392Z,9.97
2018-04-11T01:14:59.430Z,9.94
2018-04-11T01:16:00.266Z,9.92
2018-04-11T01:16:59.879Z,9.91
2018-04-11T01:17:59.744Z,9.87
2018-04-11T01:18:59.599Z,9.87
2018-04-11T01:19:59.476Z,9.84
2018-04-11T01:20:59.137Z,9.83
2018-04-11T01:21:59.890Z,9.82
2018-04-11T01:22:59.789Z,9.80
2018-04-11T01:23:59.805Z,9.76
2018-04-11T01:24:59.683Z,9.74
2018-04-11T01:25:59.216Z,9.72
2018-04-11T01:27:00.267Z,9.68
2018-04-11T01:28:00.113Z,9.66
2018-04-11T01:28:59.627Z,9.66
2018-04-11T01:29:59.386Z,9.64
2018-04-11T01:30:59.993Z,9.64
2018-04-11T01:31:59.583Z,9.61
2018-04-11T01:32:59.473Z,9.58
2018-04-11T01:34:21.027Z,9.55
2018-04-11T01:35:20.753Z,9.55
2018-04-11T01:36:21.386Z,9.54
2018-04-11T01:37:21.340Z,9.51
2018-04-11T01:38:20.931Z,9.50
2018-04-11T01:39:21.470Z,9.48
2018-04-11T01:40:21.356Z,9.47
2018-04-11T01:41:21.039Z,9.47
2018-04-11T01:42:20.909Z,9.44
2018-04-11T01:43:21.910Z,9.46
2018-04-11T01:44:21.594Z,9.41
2018-04-11T01:45:21.551Z,9.40
2018-04-11T01:46:21.246Z,9.40
2018-04-11T01:47:42.351Z,9.39
2018-04-11T01:48:42.361Z,9.37
2018-04-11T01:49:43.291Z,9.36
2018-04-11T01:50:42.399Z,9.31
2018-04-11T01:52:06.185Z,9.26
2018-04-11T01:53:07.020Z,9.25
2018-04-11T01:54:28.124Z,9.23
2018-04-11T01:55:28.817Z,9.21
2018-04-11T01:56:28.841Z,9.21
2018-04-11T01:57:28.594Z,9.16
2018-04-11T01:58:28.199Z,9.18
2018-04-11T01:59:50.110Z,9.16
2018-04-11T02:00:50.908Z,9.16
2018-04-11T02:02:11.177Z,9.13
2018-04-11T02:03:11.765Z,9.13
2018-04-11T02:04:11.606Z,9.11
2018-04-11T02:05:32.457Z,9.10
2018-04-11T02:06:54.833Z,9.06
2018-04-11T02:07:55.731Z,9.03
2018-04-11T02:08:55.302Z,9.03
2018-04-11T02:10:16.233Z,9.03
2018-04-11T02:11:17.208Z,9.02
2018-04-11T02:12:17.242Z,9.00
2018-04-11T02:13:16.744Z,8.99
2018-04-11T02:14:17.264Z,8.95
2018-04-11T02:15:16.800Z,8.94
2018-04-11T02:16:16.444Z,8.95
2018-04-11T02:17:38.415Z,8.92
2018-04-11T02:18:39.243Z,8.91
2018-04-11T02:19:38.941Z,8.88
2018-04-11T02:20:38.841Z,8.87
2018-04-11T02:21:38.269Z,8.84
2018-04-11T02:22:39.189Z,8.82
2018-04-11T02:23:38.957Z,8.81
2018-04-11T02:24:38.739Z,8.79
2018-04-11T02:25:38.520Z,8.76
2018-04-11T02:26:39.028Z,8.78
2018-04-11T02:27:38.922Z,8.74
2018-04-11T02:28:38.913Z,8.74
2018-04-11T02:29:38.718Z,8.74
2018-04-11T02:31:19.369Z,8.74
2018-04-11T02:32:19.742Z,8.73
2018-04-11T02:33:19.464Z,8.73
2018-04-11T02:34:20.423Z,8.69
2018-04-11T02:35:21.499Z,8.69
2018-04-11T02:37:03.402Z,8.69
2018-04-11T02:38:04.990Z,8.61
2018-04-11T02:39:03.517Z,8.58
2018-04-11T02:40:25.297Z,8.56
2018-04-11T02:41:26.194Z,8.60
2018-04-11T02:42:25.991Z,8.58
2018-04-11T02:43:26.020Z,8.58
2018-04-11T02:44:25.830Z,8.56
2018-04-11T02:45:25.807Z,8.53
2018-04-11T02:46:25.813Z,8.52
2018-04-11T02:47:49.527Z,8.51
2018-04-11T02:49:11.171Z,8.51
2018-04-11T02:50:12.013Z,8.51
2018-04-11T02:51:11.761Z,8.49
2018-04-11T02:52:11.474Z,8.48
2018-04-11T02:53:12.047Z,8.45
2018-04-11T02:54:12.059Z,8.45
2018-04-11T02:55:54.863Z,8.44
2018-04-11T02:56:54.658Z,8.41
2018-04-11T02:57:55.582Z,8.44
2018-04-11T02:58:55.632Z,8.42
2018-04-11T02:59:55.044Z,8.41
2018-04-11T03:00:54.501Z,8.38
2018-04-11T03:02:37.141Z,8.36
2018-04-11T03:03:38.406Z,8.34
2018-04-11T03:04:37.199Z,8.36
2018-04-11T03:05:38.432Z,8.36
2018-04-11T03:06:37.262Z,8.36
2018-04-11T03:07:37.722Z,8.36
2018-04-11T03:08:58.678Z,8.31
2018-04-11T03:09:59.331Z,8.28
2018-04-11T03:10:59.110Z,8.27
2018-04-11T03:11:58.455Z,8.26
2018-04-11T03:12:58.961Z,8.24
2018-04-11T03:14:19.060Z,8.24
2018-04-11T03:15:19.912Z,8.23
2018-04-11T03:16:19.563Z,8.19
2018-04-11T03:17:19.024Z,8.18
2018-04-11T03:18:19.483Z,8.19
2018-04-11T03:19:18.940Z,8.18
2018-04-11T03:20:19.476Z,8.19
2018-04-11T03:21:19.133Z,8.18
2018-04-11T03:22:19.502Z,8.18
2018-04-11T03:24:00.608Z,8.18
2018-04-11T03:25:01.015Z,8.15
2018-04-11T03:26:00.377Z,8.15
2018-04-11T03:27:00.969Z,8.12
2018-04-11T03:28:00.432Z,8.12
2018-04-11T03:29:00.913Z,8.12
2018-04-11T03:30:00.367Z,8.12
2018-04-11T03:31:01.112Z,8.10
2018-04-11T03:32:00.905Z,8.10
2018-04-11T03:33:01.258Z,8.12
2018-04-11T03:34:21.953Z,8.10
2018-04-11T03:35:22.365Z,8.12
2018-04-11T03:36:22.102Z,8.10
2018-04-11T03:37:22.910Z,8.10
2018-04-11T03:38:22.615Z,8.10
2018-04-11T03:39:22.002Z,8.08
2018-04-11T03:40:22.758Z,8.08
2018-04-11T03:41:22.614Z,8.09
2018-04-11T03:42:22.226Z,8.08
2018-04-11T03:44:03.090Z,8.05
2018-04-11T03:45:03.758Z,8.03
2018-04-11T03:46:44.094Z,8.03
2018-04-11T03:47:44.582Z,8.00
2018-04-11T03:48:44.362Z,7.97
2018-04-11T03:50:06.350Z,7.97
2018-04-11T03:51:06.947Z,7.95
2018-04-11T03:52:06.422Z,7.93
2018-04-11T03:53:06.737Z,7.95
2018-04-11T03:54:06.307Z,7.93
2018-04-11T03:55:06.824Z,7.90
2018-04-11T03:56:06.579Z,7.88
2018-04-11T03:57:06.177Z,7.88
2018-04-11T03:58:06.931Z,7.88
2018-04-11T03:59:26.697Z,7.87
2018-04-11T04:00:27.179Z,7.88
2018-04-11T04:01:27.919Z,7.85
2018-04-11T04:02:27.466Z,7.88
2018-04-11T04:03:27.309Z,7.82
2018-04-11T04:04:28.024Z,7.82
2018-04-11T04:05:27.574Z,7.80
2018-04-11T04:06:27.475Z,7.79
2018-04-11T04:07:26.998Z,7.79
2018-04-11T04:08:27.646Z,7.77
2018-04-11T04:09:27.048Z,7.76
2018-04-11T04:10:27.613Z,7.76
2018-04-11T04:11:27.309Z,7.77
2018-04-11T04:12:27.196Z,7.77
2018-04-11T04:13:27.627Z,7.76
2018-04-11T04:15:08.624Z,7.77
2018-04-11T04:16:09.215Z,7.76
2018-04-11T04:17:09.046Z,7.75
2018-04-11T04:18:09.463Z,7.76
2018-04-11T04:19:09.204Z,7.76
2018-04-11T04:20:50.702Z,7.76
2018-04-11T04:21:51.584Z,7.75
2018-04-11T04:22:51.550Z,7.75
2018-04-11T04:23:51.336Z,7.75
2018-04-11T04:24:51.143Z,7.75
2018-04-11T04:25:50.713Z,7.73
2018-04-11T04:26:51.586Z,7.73
2018-04-11T04:27:51.010Z,7.75
2018-04-11T04:28:51.196Z,7.75
2018-04-11T04:29:50.739Z,7.76
2018-04-11T04:30:51.450Z,7.75
2018-04-11T04:32:11.913Z,7.77
2018-04-11T04:33:12.594Z,7.79
2018-04-11T04:34:12.291Z,7.79
2018-04-11T04:35:54.565Z,7.79
2018-04-11T04:36:55.013Z,7.80
2018-04-11T04:37:54.480Z,7.82
2018-04-11T04:39:16.545Z,7.83
2018-04-11T04:40:17.407Z,7.83
2018-04-11T04:41:17.056Z,7.83
2018-04-11T04:42:16.629Z,7.85
2018-04-11T04:43:17.410Z,7.85
2018-04-11T04:44:17.376Z,7.83
2018-04-11T04:45:38.905Z,7.85
2018-04-11T04:46:39.694Z,7.85
2018-04-11T04:47:39.445Z,7.85
2018-04-11T04:48:39.154Z,7.83
2018-04-11T04:49:38.875Z,7.83
2018-04-11T04:50:39.834Z,7.90
2018-04-11T04:51:39.232Z,7.91
2018-04-11T04:52:38.779Z,7.88
2018-04-11T04:53:39.637Z,7.90
2018-04-11T04:54:39.045Z,7.91
2018-04-11T04:55:38.584Z,7.88
2018-04-11T04:56:39.534Z,7.91
2018-04-11T04:57:39.451Z,7.91
2018-04-11T04:58:39.290Z,7.94
2018-04-11T04:59:38.892Z,7.93
2018-04-11T05:01:01.385Z,7.97
2018-04-11T05:02:03.344Z,7.98
2018-04-11T05:03:59.686Z,7.98
2018-04-11T05:04:57.606Z,8.01
2018-04-11T05:05:57.320Z,8.01
2018-04-11T05:06:57.151Z,8.03
2018-04-11T05:07:56.963Z,8.05
2018-04-11T05:08:57.637Z,8.05
2018-04-11T05:09:57.383Z,8.08
2018-04-11T05:10:57.476Z,8.12
2018-04-11T05:11:57.497Z,8.16
2018-04-11T05:12:57.170Z,8.19
2018-04-11T05:13:56.815Z,8.26
2018-04-11T05:14:57.786Z,8.30
2018-04-11T05:15:57.743Z,8.31
2018-04-11T05:16:57.624Z,8.36
2018-04-11T05:17:57.656Z,8.37
2018-04-11T05:19:18.403Z,8.41
2018-04-11T05:20:19.350Z,8.45
2018-04-11T05:21:19.309Z,8.49
2018-04-11T05:22:19.187Z,8.51
2018-04-11T05:23:19.031Z,8.53
2018-04-11T05:24:18.591Z,8.58
2018-04-11T05:25:18.512Z,8.61
2018-04-11T05:26:19.418Z,8.61
2018-04-11T05:27:19.132Z,8.70
2018-04-11T05:28:25.290Z,8.81
2018-04-11T05:29:19.040Z,8.95
2018-04-11T05:30:20.070Z,9.04
2018-04-11T05:31:18.891Z,9.03
2018-04-11T05:32:18.460Z,9.14
2018-04-11T05:33:19.164Z,9.13
2018-04-11T05:34:18.719Z,9.16
2018-04-11T05:35:18.524Z,9.18
2018-04-11T05:36:19.295Z,9.21
2018-04-11T05:37:19.515Z,9.19
2018-04-11T05:38:19.041Z,9.21
2018-04-11T05:39:18.823Z,9.22
2018-04-11T05:40:18.874Z,9.31
2018-04-11T05:41:18.766Z,9.31
2018-04-11T05:42:18.827Z,9.26
2018-04-11T05:43:18.439Z,9.21
2018-04-11T05:44:18.414Z,9.21
2018-04-11T05:45:19.097Z,9.25
2018-04-11T05:46:19.088Z,9.23
2018-04-11T05:47:18.989Z,9.25
2018-04-11T05:48:18.669Z,9.28
2018-04-11T05:49:18.638Z,9.29
2018-04-11T05:50:18.205Z,9.26
2018-04-11T05:51:40.485Z,9.25
2018-04-11T05:52:41.121Z,9.23
2018-04-11T05:53:41.040Z,9.19
2018-04-11T05:54:40.933Z,9.21
2018-04-11T05:55:40.464Z,9.22
2018-04-11T05:56:41.134Z,9.21
2018-04-11T05:57:40.734Z,9.25
2018-04-11T05:58:40.541Z,9.26
2018-04-11T05:59:40.546Z,9.29
2018-04-11T06:00:40.519Z,9.29
2018-04-11T06:01:40.515Z,9.40
2018-04-11T06:02:41.227Z,9.44
2018-04-11T06:04:02.436Z,9.43
2018-04-11T06:05:03.339Z,9.39
2018-04-11T06:06:03.141Z,9.41
2018-04-11T06:07:02.974Z,9.47
2018-04-11T06:08:02.524Z,9.51
2018-04-11T06:09:03.156Z,9.55
2018-04-11T06:10:03.201Z,9.56
2018-04-11T06:11:23.922Z,9.56
2018-04-11T06:12:24.888Z,9.62
2018-04-11T06:13:46.226Z,9.64
2018-04-11T06:14:46.940Z,9.62
2018-04-11T06:15:46.841Z,9.66
2018-04-11T06:16:46.432Z,9.73
2018-04-11T06:17:46.959Z,9.80
2018-04-11T06:18:46.894Z,9.83
2018-04-11T06:19:46.441Z,9.87
2018-04-11T06:20:47.357Z,9.83
2018-04-11T06:22:07.804Z,9.84
2018-04-11T06:23:08.548Z,9.83
2018-04-11T06:24:07.974Z,9.82
2018-04-11T06:25:49.398Z,9.83
2018-04-11T06:26:50.081Z,9.84
2018-04-11T06:27:49.931Z,9.83
2018-04-11T06:28:50.815Z,9.82
2018-04-11T06:29:49.410Z,9.79
2018-04-11T06:30:50.506Z,9.79
2018-04-11T06:31:50.500Z,9.79
2018-04-11T06:32:50.218Z,9.80
2018-04-11T06:33:50.104Z,9.84
2018-04-11T06:34:49.752Z,9.89
2018-04-11T06:36:10.974Z,9.99
2018-04-11T06:37:11.393Z,9.98
2018-04-11T06:38:11.897Z,10.04
2018-04-11T06:39:11.771Z,10.10
2018-04-11T06:40:32.999Z,10.17
2018-04-11T06:41:33.523Z,10.25
2018-04-11T06:42:33.146Z,10.33
2018-04-11T06:43:55.394Z,10.34
2018-04-11T06:44:56.219Z,10.31
2018-04-11T06:45:55.848Z,10.34
2018-04-11T06:46:55.815Z,10.42
2018-04-11T06:47:55.728Z,10.53
2018-04-11T06:48:55.621Z,10.59
2018-04-11T06:49:56.161Z,10.74
2018-04-11T06:50:56.159Z,10.79
2018-04-11T06:51:56.112Z,10.79
2018-04-11T06:53:17.297Z,10.87
2018-04-11T06:54:17.832Z,10.96
2018-04-11T06:55:39.525Z,11.07
2018-04-11T06:56:39.272Z,11.12
2018-04-11T06:57:40.245Z,11.37
2018-04-11T06:58:40.205Z,11.45
2018-04-11T06:59:40.241Z,11.50
2018-04-11T07:00:39.678Z,11.50
2018-04-11T07:01:39.777Z,11.43
2018-04-11T07:02:39.371Z,11.37
2018-04-11T07:03:40.200Z,11.37
2018-04-11T07:04:40.055Z,11.25
2018-04-11T07:05:39.698Z,11.23
2018-04-11T07:06:39.248Z,11.32
2018-04-11T07:07:40.021Z,11.37
2018-04-11T07:08:40.015Z,11.43
2018-04-11T07:09:39.613Z,11.40
2018-04-11T07:10:40.155Z,11.30
2018-04-11T07:11:40.077Z,11.32
2018-04-11T07:12:39.750Z,11.36
2018-04-11T07:13:39.376Z,11.26
2018-04-11T07:14:40.202Z,11.29
2018-04-11T07:15:39.708Z,11.33
2018-04-11T07:16:39.823Z,11.37
2018-04-11T07:18:01.284Z,11.44
2018-04-11T07:19:23.367Z,11.51
2018-04-11T07:20:23.329Z,11.54
2018-04-11T07:21:23.040Z,11.63
2018-04-11T07:22:23.615Z,11.83
2018-04-11T07:23:44.065Z,12.20
2018-04-11T07:24:44.675Z,12.37
2018-04-11T07:26:05.001Z,12.45
2018-04-11T07:27:27.156Z,12.60
2018-04-11T07:28:49.481Z,12.67
2018-04-11T07:29:50.457Z,12.82
2018-04-11T07:30:49.969Z,12.80
2018-04-11T07:31:49.957Z,12.53
2018-04-11T07:32:49.483Z,12.39
2018-04-11T07:33:50.488Z,12.36
2018-04-11T07:34:49.592Z,12.35
2018-04-11T07:35:49.128Z,12.49
2018-04-11T07:36:50.243Z,12.50
2018-04-11T07:37:50.225Z,12.47
2018-04-11T07:38:50.210Z,12.43
2018-04-11T07:39:49.965Z,12.43
2018-04-11T07:40:49.386Z,12.46
2018-04-11T07:42:11.396Z,12.39
2018-04-11T07:43:11.360Z,12.35
2018-04-11T07:44:52.942Z,12.24
2018-04-11T07:45:53.641Z,12.15
2018-04-11T07:47:35.370Z,12.17
2018-04-11T07:48:35.948Z,12.15
2018-04-11T07:49:35.615Z,12.09
2018-04-11T07:50:36.325Z,12.09
2018-04-11T07:51:36.197Z,12.12
2018-04-11T07:52:36.273Z,12.10
2018-04-11T07:53:36.348Z,12.31
2018-04-11T07:54:36.050Z,12.45
2018-04-11T07:56:18.039Z,12.43
2018-04-11T07:57:18.614Z,12.42
2018-04-11T07:58:18.669Z,12.47
2018-04-11T07:59:18.634Z,12.47
2018-04-11T08:00:18.563Z,12.53
2018-04-11T08:01:18.057Z,12.54
2018-04-11T08:02:18.923Z,12.55
2018-04-11T08:03:18.761Z,12.43
2018-04-11T08:04:18.859Z,12.42
2018-04-11T08:05:18.604Z,12.39
2018-04-11T08:06:39.368Z,12.49
2018-04-11T08:07:40.032Z,12.49
2018-04-11T08:08:39.660Z,12.45
2018-04-11T08:09:39.506Z,12.43
2018-04-11T08:10:39.333Z,12.40
2018-04-11T08:11:39.442Z,12.28
2018-04-11T08:12:40.019Z,12.24
2018-04-11T08:13:39.962Z,12.21
2018-04-11T08:14:39.710Z,12.20
2018-04-11T08:15:39.759Z,12.24
2018-04-11T08:16:39.511Z,12.39
2018-04-11T08:17:39.623Z,12.35
2018-04-11T08:19:00.934Z,12.27
2018-04-11T08:20:01.561Z,12.25
2018-04-11T08:21:01.124Z,12.32
2018-04-11T08:22:02.072Z,12.37
2018-04-11T08:23:02.009Z,12.29
2018-04-11T08:24:01.739Z,12.21
2018-04-11T08:25:01.666Z,12.17
2018-04-11T08:26:04.882Z,12.09
2018-04-11T08:27:01.809Z,12.07
2018-04-11T08:28:01.569Z,12.03
2018-04-11T08:29:01.072Z,12.02
2018-04-11T08:30:23.016Z,12.06
2018-04-11T08:31:23.527Z,12.13
2018-04-11T08:32:23.179Z,12.10
2018-04-11T08:33:45.109Z,12.07
2018-04-11T08:35:07.555Z,12.07
2018-04-11T08:36:09.446Z,12.15
2018-04-11T08:37:32.450Z,12.27
2018-04-11T08:38:26.443Z,12.37
2018-04-11T08:39:26.264Z,12.39
2018-04-11T08:40:48.072Z,12.46
2018-04-11T08:41:49.093Z,12.58
2018-04-11T08:42:49.066Z,12.57
2018-04-11T08:43:58.947Z,12.64
2018-04-11T08:44:49.626Z,12.75
2018-04-11T08:45:48.536Z,12.87
2018-04-11T08:47:29.911Z,13.13
2018-04-11T08:48:51.499Z,13.39
2018-04-11T08:49:51.400Z,13.59
2018-04-11T08:50:51.576Z,13.83
2018-04-11T08:51:51.193Z,14.44
2018-04-11T08:52:51.857Z,15.14
2018-04-11T08:53:51.388Z,15.82
2018-04-11T08:55:12.899Z,17.06
2018-04-11T08:56:14.084Z,17.41
2018-04-11T08:57:13.678Z,17.98
2018-04-11T08:58:13.197Z,18.35
2018-04-11T08:59:13.849Z,18.52
2018-04-11T09:00:13.852Z,18.59
2018-04-11T09:01:35.155Z,18.35
2018-04-11T09:02:35.972Z,18.58
2018-04-11T09:03:35.623Z,18.16
2018-04-11T09:04:35.620Z,18.07
2018-04-11T09:05:36.443Z,17.89
2018-04-11T09:06:56.749Z,18.10
2018-04-11T09:07:57.375Z,18.00
2018-04-11T09:08:57.274Z,18.20
2018-04-11T09:09:57.196Z,18.60
2018-04-11T09:11:18.055Z,18.95
2018-04-11T09:12:18.774Z,19.07
2018-04-11T09:13:42.258Z,18.53
2018-04-11T09:14:42.889Z,18.05
2018-04-11T09:15:42.558Z,17.68
2018-04-11T09:17:23.925Z,18.04
2018-04-11T09:18:46.475Z,18.38
2018-04-11T09:19:47.471Z,18.60
2018-04-11T09:20:46.599Z,19.02
2018-04-11T09:21:46.538Z,19.12
2018-04-11T09:22:46.355Z,19.81
2018-04-11T09:23:47.464Z,19.82
2018-04-11T09:24:46.566Z,19.94
2018-04-11T09:26:07.225Z,19.73
2018-04-11T09:27:07.032Z,20.25
2018-04-11T09:28:08.031Z,20.44
2018-04-11T09:29:29.346Z,20.52
2018-04-11T09:30:51.134Z,20.06
2018-04-11T09:31:51.724Z,19.85
2018-04-11T09:32:51.393Z,19.56
2018-04-11T09:33:51.276Z,19.54
2018-04-11T09:34:51.368Z,19.34
2018-04-11T09:35:51.860Z,19.34
2018-04-11T09:36:51.870Z,19.81
2018-04-11T09:38:32.460Z,20.22
2018-04-11T09:39:54.341Z,20.10
2018-04-11T09:40:55.525Z,20.40
2018-04-11T09:41:54.366Z,20.65
2018-04-11T09:42:55.035Z,20.58
2018-04-11T09:46:33.164Z,21.27
2018-04-11T09:47:34.361Z,21.35
2018-04-11T09:48:55.298Z,21.45
2018-04-11T09:49:56.486Z,21.69
2018-04-11T09:50:55.985Z,21.06
2018-04-11T09:51:55.895Z,20.99
2018-04-11T09:52:55.766Z,21.07
2018-04-11T09:53:55.802Z,20.80
2018-04-11T09:54:55.676Z,20.88
2018-04-11T09:55:55.756Z,21.03
2018-04-11T09:56:56.371Z,20.81
2018-04-11T09:57:55.884Z,21.05
2018-04-11T09:58:55.609Z,20.82
2018-04-11T09:59:56.622Z,21.05
2018-04-11T10:01:38.358Z,20.85
2018-04-11T10:02:39.079Z,21.02
2018-04-11T10:03:38.908Z,20.84
2018-04-11T10:04:38.962Z,20.78
2018-04-11T10:05:38.720Z,20.80
2018-04-11T10:06:38.554Z,21.03
2018-04-11T10:07:38.307Z,21.29
2018-04-11T10:08:39.142Z,21.46
2018-04-11T10:10:00.438Z,21.33
2018-04-11T10:11:01.456Z,21.50
2018-04-11T10:12:01.403Z,21.35
2018-04-11T10:13:01.528Z,21.60
2018-04-11T10:14:23.366Z,21.69
2018-04-11T10:15:23.069Z,21.30
2018-04-11T10:16:24.053Z,21.46
2018-04-11T10:17:24.073Z,21.29
2018-04-11T10:18:23.960Z,21.14
2018-04-11T10:19:23.909Z,21.40
2018-04-11T10:20:23.758Z,21.52
2018-04-11T10:21:23.543Z,21.69
2018-04-11T10:22:23.076Z,21.64
2018-04-11T10:23:24.218Z,21.52
2018-04-11T10:24:23.825Z,21.48
2018-04-11T10:25:23.427Z,21.77
2018-04-11T10:26:23.985Z,21.39
2018-04-11T10:27:23.641Z,21.32
2018-04-11T10:28:23.348Z,21.82
2018-04-11T10:29:23.218Z,22.29
2018-04-11T10:30:45.672Z,22.54
2018-04-11T10:31:46.457Z,22.33
2018-04-11T10:32:46.394Z,22.47
2018-04-11T10:33:45.961Z,22.83
2018-04-11T10:34:45.771Z,22.88
2018-04-11T10:35:45.727Z,22.87
2018-04-11T10:37:07.166Z,22.78
2018-04-11T10:38:07.825Z,22.75
2018-04-11T10:39:07.829Z,22.35
2018-04-11T10:40:07.616Z,22.60
2018-04-11T10:41:07.600Z,22.13
2018-04-11T10:42:07.376Z,22.06
2018-04-11T10:43:07.974Z,22.72
2018-04-11T10:44:07.947Z,23.34
2018-04-11T10:45:07.693Z,23.44
2018-04-11T10:46:07.784Z,23.78
2018-04-11T10:47:07.844Z,23.87
2018-04-11T10:48:07.435Z,23.34
2018-04-11T10:49:07.339Z,22.85
2018-04-11T10:50:07.099Z,22.48
2018-04-11T10:51:08.516Z,22.06
2018-04-11T10:52:07.157Z,22.23
2018-04-11T10:53:07.897Z,22.85
2018-04-11T10:54:07.578Z,23.17
2018-04-11T10:55:07.315Z,22.83
2018-04-11T10:56:08.429Z,22.75
2018-04-11T10:57:07.619Z,23.39
2018-04-11T10:58:07.343Z,23.86
2018-04-11T10:59:08.321Z,24.23
2018-04-11T11:00:28.972Z,23.88
2018-04-11T11:01:29.663Z,23.92
2018-04-11T11:02:50.579Z,24.10
2018-04-11T11:03:51.336Z,23.98
2018-04-11T11:04:51.347Z,24.06
2018-04-11T11:06:12.346Z,23.91
2018-04-11T11:07:12.642Z,24.21
2018-04-11T11:08:12.245Z,24.43
2018-04-11T11:09:12.950Z,24.24
2018-04-11T11:10:33.989Z,23.98
2018-04-11T11:11:34.718Z,23.63
2018-04-11T11:12:34.647Z,23.43
2018-04-11T11:13:34.839Z,23.31
2018-04-11T11:14:56.430Z,24.21
2018-04-11T11:15:57.049Z,24.55
2018-04-11T11:16:56.669Z,24.45
2018-04-11T11:17:56.826Z,24.23
2018-04-11T11:18:56.356Z,24.01
2018-04-11T11:19:57.316Z,23.69
2018-04-11T11:20:56.193Z,23.69
2018-04-11T11:21:56.670Z,24.05
2018-04-11T11:22:56.800Z,24.01
2018-04-11T11:23:56.755Z,23.87
2018-04-11T11:24:56.662Z,24.24
2018-04-11T11:25:56.403Z,24.51
2018-04-11T11:26:57.414Z,23.77
2018-04-11T11:27:56.100Z,23.81
2018-04-11T11:28:56.801Z,23.93
2018-04-11T11:29:56.808Z,24.26
2018-04-11T11:30:57.045Z,24.26
2018-04-11T11:32:18.064Z,24.21
2018-04-11T11:33:19.255Z,24.13
2018-04-11T11:34:19.098Z,23.98
2018-04-11T11:35:18.706Z,23.68
2018-04-11T11:36:18.222Z,23.95
2018-04-11T11:37:19.347Z,24.32
2018-04-11T11:38:19.323Z,24.73
2018-04-11T11:39:18.875Z,24.86
2018-04-11T11:40:18.517Z,24.93
2018-04-11T11:41:41.225Z,25.08
2018-04-11T11:43:03.185Z,24.18
2018-04-11T11:44:04.266Z,24.18
2018-04-11T11:45:04.011Z,24.20
2018-04-11T11:46:03.833Z,24.28
2018-04-11T11:47:24.975Z,24.65
2018-04-11T11:48:25.592Z,24.47
2018-04-11T11:49:25.188Z,24.48
2018-04-11T11:50:25.534Z,24.08
2018-04-11T11:57:45.678Z,24.28
2018-04-11T11:58:46.846Z,24.30
2018-04-11T11:59:49.617Z,24.28
2018-04-11T12:00:46.855Z,23.93
2018-04-11T12:03:48.399Z,23.83
2018-04-11T12:05:43.319Z,23.46
2018-04-11T12:08:21.218Z,23.48
2018-04-11T12:09:31.799Z,23.32
2018-04-11T12:11:11.027Z,23.77
2018-04-11T12:12:28.338Z,23.93
2018-04-11T12:14:15.733Z,23.99
2018-04-11T12:15:30.618Z,23.84
2018-04-11T12:17:05.190Z,24.35
2018-04-11T12:18:06.463Z,24.32
2018-04-11T12:19:10.107Z,24.10
2018-04-11T12:20:09.903Z,24.38
2018-04-11T12:21:09.193Z,24.65
2018-04-11T12:22:06.526Z,24.61
2018-04-11T12:23:09.283Z,24.86
2018-04-11T12:24:06.193Z,24.80
2018-04-11T12:25:06.377Z,25.32
2018-04-11T12:26:06.247Z,25.59
2018-04-11T12:27:06.190Z,25.06
2018-04-11T12:28:06.252Z,24.91
2018-04-11T12:29:06.303Z,24.51
2018-04-11T12:30:27.945Z,24.18
2018-04-11T12:31:28.982Z,23.91
2018-04-11T12:32:29.016Z,23.40
2018-04-11T12:33:29.685Z,23.24
2018-04-11T12:34:28.865Z,23.73
2018-04-11T12:35:28.748Z,23.68
2018-04-11T12:36:28.568Z,24.02
2018-04-11T12:37:28.539Z,24.03
2018-04-11T12:38:28.479Z,24.03
2018-04-11T12:39:28.834Z,24.39
2018-04-11T12:40:29.717Z,24.86
2018-04-11T12:41:28.536Z,25.55
2018-04-11T12:42:28.219Z,26.18
2018-04-11T12:43:28.006Z,26.29
2018-04-11T12:44:28.770Z,26.16
2018-04-11T12:45:28.527Z,26.03
2018-04-11T12:46:28.217Z,25.87
2018-04-11T12:47:29.207Z,25.98
2018-04-11T12:48:28.999Z,26.15
2018-04-11T12:49:28.990Z,26.41
2018-04-11T12:50:28.803Z,26.18
2018-04-11T12:51:28.786Z,26.16
2018-04-11T12:52:28.834Z,26.15
2018-04-11T12:53:28.747Z,26.37
2018-04-11T12:54:28.760Z,25.91
2018-04-11T12:55:28.461Z,25.46
2018-04-11T12:56:28.599Z,25.25
2018-04-11T12:58:09.720Z,23.93
2018-04-11T12:59:10.497Z,23.99
2018-04-11T13:00:10.671Z,23.74
2018-04-11T13:01:10.881Z,23.09
2018-04-11T13:02:53.500Z,22.65
2018-04-11T13:03:54.410Z,21.99
2018-04-11T13:04:54.029Z,21.83
2018-04-11T13:05:54.103Z,21.57
2018-04-11T13:06:54.077Z,21.22
2018-04-11T13:08:15.364Z,21.12
2018-04-11T13:09:16.459Z,20.85
2018-04-11T13:10:37.297Z,20.72
2018-04-11T13:11:38.044Z,20.78
2018-04-11T13:12:59.482Z,20.52
2018-04-11T13:14:57.528Z,20.59
2018-04-11T13:16:19.194Z,20.55
2018-04-11T13:17:47.286Z,20.77
2018-04-11T13:18:47.174Z,20.77
2018-04-11T13:19:47.338Z,20.97
2018-04-11T13:20:47.340Z,21.57
2018-04-11T13:21:47.059Z,22.23
2018-04-11T13:22:47.845Z,22.75
2018-04-11T13:24:09.797Z,22.80
2018-04-11T13:25:09.627Z,22.96
2018-04-11T13:26:09.413Z,23.20
2018-04-11T13:27:09.255Z,23.36
2018-04-11T13:28:33.043Z,23.37
2018-04-11T13:29:55.290Z,23.23
2018-04-11T13:30:57.646Z,23.13
2018-04-11T13:31:55.916Z,23.41
2018-04-11T13:33:16.913Z,23.69
2018-04-11T13:34:17.969Z,23.28
2018-04-11T13:35:17.787Z,23.12
2018-04-11T13:36:18.117Z,22.85
2018-04-11T13:37:18.321Z,22.84
2018-04-11T13:38:17.289Z,22.53
2018-04-11T13:39:17.117Z,22.36
2018-04-11T13:40:17.985Z,22.39
2018-04-11T13:41:17.918Z,22.10
2018-04-11T13:42:18.152Z,22.17
2018-04-11T13:44:00.008Z,22.10
2018-04-11T13:45:01.054Z,22.17
2018-04-11T13:46:01.344Z,22.15
2018-04-11T13:47:00.461Z,22.07
2018-04-11T13:48:00.459Z,22.33
2018-04-11T13:49:00.179Z,22.32
2018-04-11T13:50:00.239Z,22.28
2018-04-11T13:50:59.965Z,22.36
2018-04-11T13:52:00.698Z,22.26
2018-04-11T13:53:01.038Z,22.30
2018-04-11T13:54:01.250Z,22.35
2018-04-11T13:55:01.185Z,22.18
2018-04-11T13:56:00.287Z,22.38
2018-04-11T13:57:00.919Z,22.62
2018-04-11T13:58:00.992Z,22.32
2018-04-11T13:59:00.898Z,21.80
2018-04-11T14:00:00.826Z,21.54
2018-04-11T14:01:21.706Z,21.67
2018-04-11T14:02:21.895Z,21.57
2018-04-11T14:03:21.603Z,21.54
2018-04-11T14:04:22.251Z,21.33
2018-04-11T14:05:22.201Z,21.21
2018-04-11T14:06:43.392Z,21.52
2018-04-11T14:07:43.570Z,21.76
2018-04-11T14:08:43.582Z,21.70